createdAt,value
2018-07-04T00:00:22.924Z,27.1
2018-07-04T00:01:32.631Z,27.12
2018-07-04T00:02:42.075Z,27.04
2018-07-04T00:03:51.732Z,27.09
2018-07-04T00:05:00.885Z,27.13
2018-07-04T00:06:10.544Z,27.04
2018-07-04T00:07:19.992Z,27.17
2018-07-04T00:08:28.648Z,27.12
2018-07-04T00:09:38.048Z,27.04
2018-07-04T00:10:47.503Z,27.12
2018-07-04T00:11:56.911Z,27.04
2018-07-04T00:13:06.067Z,27.09
2018-07-04T00:14:14.706Z,27.13
2018-07-04T00:15:24.370Z,27.09
2018-07-04T00:16:33.508Z,27.1
2018-07-04T00:17:42.401Z,27.06
2018-07-04T00:18:52.320Z,27.18
2018-07-04T00:20:00.952Z,27.13
2018-07-04T00:21:10.872Z,27.1
2018-07-04T00:22:20.313Z,27.13
2018-07-04T00:23:29.723Z,27.12
2018-07-04T00:24:38.866Z,27.13
2018-07-04T00:25:48.253Z,27.09
2018-07-04T00:26:57.153Z,27.06
2018-07-04T00:28:06.310Z,27.14
2018-07-04T00:29:15.462Z,27.09
2018-07-04T00:30:24.911Z,27.07
2018-07-04T00:31:34.066Z,27.09
2018-07-04T00:32:43.222Z,27.02
2018-07-04T00:33:52.676Z,27.1
2018-07-04T00:35:01.821Z,27.13
2018-07-04T00:36:10.988Z,27.07
2018-07-04T00:37:20.673Z,27.04
2018-07-04T00:38:29.823Z,27.06
2018-07-04T00:39:38.965Z,27.1
2018-07-04T00:40:48.097Z,27.13
2018-07-04T00:41:57.257Z,27.1
2018-07-04T00:43:06.698Z,27.12
2018-07-04T00:44:16.362Z,27.12
2018-07-04T00:45:26.467Z,27.12
2018-07-04T00:46:35.870Z,27.04
2018-07-04T00:47:45.546Z,27.09
2018-07-04T00:48:54.956Z,27.06
2018-07-04T00:50:04.402Z,27.17
2018-07-04T00:51:14.058Z,27.06
2018-07-04T00:52:23.721Z,27.06
2018-07-04T00:53:32.614Z,27.09
2018-07-04T00:54:42.269Z,27.13
2018-07-04T00:55:51.926Z,27.13
2018-07-04T00:57:02.198Z,27.09
2018-07-04T00:58:12.117Z,27.09
2018-07-04T00:59:21.568Z,27.09
2018-07-04T01:00:31.230Z,27.02
2018-07-04T01:01:40.379Z,27.14
2018-07-04T01:02:49.525Z,27.18
2018-07-04T01:03:58.407Z,27.13
2018-07-04T01:05:08.096Z,27.04
2018-07-04T01:06:17.764Z,27.07
2018-07-04T01:07:26.900Z,27.04
2018-07-04T01:08:36.839Z,27.07
2018-07-04T01:09:46.494Z,27.07
2018-07-04T01:10:55.643Z,27.03
2018-07-04T01:12:04.788Z,27.09
2018-07-04T01:13:14.441Z,27.03
2018-07-04T01:14:23.357Z,27.13
2018-07-04T01:15:32.529Z,27.1
2018-07-04T01:16:41.687Z,27.09
2018-07-04T01:17:51.489Z,27.07
2018-07-04T01:19:01.146Z,27.09
2018-07-04T01:20:10.575Z,27.13
2018-07-04T01:21:19.462Z,27.09
2018-07-04T01:22:28.937Z,27.03
2018-07-04T01:23:37.827Z,27.06
2018-07-04T01:24:46.979Z,27.12
2018-07-04T01:25:56.177Z,27.07
2018-07-04T01:27:05.586Z,27.09
2018-07-04T01:28:15.248Z,27.06
2018-07-04T01:29:24.654Z,27.07
2018-07-04T01:30:34.109Z,27.07
2018-07-04T01:31:43.518Z,27.03
2018-07-04T01:32:52.930Z,27.13
2018-07-04T01:34:02.356Z,27.06
2018-07-04T01:35:11.292Z,27.09
2018-07-04T01:36:21.198Z,27.06
2018-07-04T01:37:30.601Z,27.14
2018-07-04T01:38:40.009Z,27
2018-07-04T01:39:49.689Z,27.02
2018-07-04T01:40:59.357Z,27.02
2018-07-04T01:42:08.755Z,26.95
2018-07-04T01:43:18.154Z,27.04
2018-07-04T01:44:27.567Z,27.04
2018-07-04T01:45:37.499Z,27.04
2018-07-04T01:46:46.917Z,26.99
2018-07-04T01:47:55.609Z,27.04
2018-07-04T01:49:04.790Z,27.03
2018-07-04T01:50:15.126Z,27.03
2018-07-04T01:51:24.783Z,27.03
2018-07-04T01:52:33.935Z,27
2018-07-04T01:53:43.596Z,26.95
2018-07-04T01:54:52.735Z,27.03
2018-07-04T01:56:02.134Z,27
2018-07-04T01:57:12.057Z,27.02
2018-07-04T01:58:21.713Z,27.03
2018-07-04T01:59:31.152Z,27.04
2018-07-04T02:00:40.571Z,26.97
2018-07-04T02:01:49.974Z,27.06
2018-07-04T02:02:59.630Z,27
2018-07-04T02:04:08.531Z,26.99
2018-07-04T02:05:18.200Z,26.95
2018-07-04T02:06:27.596Z,26.95
2018-07-04T02:07:37.263Z,27.06
2018-07-04T02:08:46.920Z,27
2018-07-04T02:09:56.071Z,27.07
2018-07-04T02:11:05.209Z,26.95
2018-07-04T02:12:14.099Z,27.04
2018-07-04T02:13:23.496Z,26.95
2018-07-04T02:14:32.901Z,26.92
2018-07-04T02:15:42.316Z,26.95
2018-07-04T02:16:51.977Z,26.95
2018-07-04T02:18:01.194Z,26.95
2018-07-04T02:19:10.604Z,26.94
2018-07-04T02:20:20.265Z,26.97
2018-07-04T02:21:29.953Z,26.99
2018-07-04T02:22:38.851Z,26.99
2018-07-04T02:23:48.258Z,26.91
2018-07-04T02:24:57.145Z,26.97
2018-07-04T02:26:06.553Z,26.97
2018-07-04T02:27:15.438Z,26.95
2018-07-04T02:28:25.098Z,26.94
2018-07-04T02:29:34.758Z,26.94
2018-07-04T02:30:43.917Z,26.97
2018-07-04T02:31:53.587Z,26.95
2018-07-04T02:33:03.524Z,26.94
2018-07-04T02:34:13.191Z,26.95
2018-07-04T02:35:23.105Z,26.94
2018-07-04T02:36:32.508Z,26.94
2018-07-04T02:37:42.459Z,26.94
2018-07-04T02:38:51.885Z,26.89
2018-07-04T02:40:01.289Z,26.95
2018-07-04T02:41:10.700Z,26.92
2018-07-04T02:42:20.372Z,26.94
2018-07-04T02:43:30.024Z,26.91
2018-07-04T02:44:39.684Z,26.84
2018-07-04T02:45:48.845Z,26.88
2018-07-04T02:46:58.289Z,26.87
2018-07-04T02:48:08.020Z,26.89
2018-07-04T02:49:17.428Z,26.89
2018-07-04T02:50:27.357Z,26.8
2018-07-04T02:51:36.791Z,26.85
2018-07-04T02:52:46.467Z,26.85
2018-07-04T02:53:55.878Z,26.92
2018-07-04T02:55:05.637Z,26.85
2018-07-04T02:56:15.296Z,26.85
2018-07-04T02:57:25.211Z,26.87
2018-07-04T02:58:34.617Z,26.88
2018-07-04T02:59:43.763Z,26.82
2018-07-04T03:00:53.179Z,26.89
2018-07-04T03:02:02.587Z,26.81
2018-07-04T03:03:11.497Z,26.81
2018-07-04T03:04:21.416Z,26.87
2018-07-04T03:05:31.336Z,26.85
2018-07-04T03:06:40.990Z,26.76
2018-07-04T03:07:50.647Z,26.69
2018-07-04T03:09:00.327Z,26.84
2018-07-04T03:10:09.730Z,26.76
2018-07-04T03:11:19.393Z,26.81
2018-07-04T03:12:29.047Z,26.75
2018-07-04T03:13:38.964Z,26.75
2018-07-04T03:14:48.369Z,26.75
2018-07-04T03:15:58.309Z,26.73
2018-07-04T03:17:07.745Z,26.81
2018-07-04T03:18:17.415Z,26.73
2018-07-04T03:19:27.096Z,26.82
2018-07-04T03:20:36.756Z,26.72
2018-07-04T03:21:46.433Z,26.75
2018-07-04T03:22:56.123Z,26.72
2018-07-04T03:24:05.785Z,26.75
2018-07-04T03:25:15.447Z,26.73
2018-07-04T03:26:25.119Z,26.77
2018-07-04T03:27:35.036Z,26.77
2018-07-04T03:28:44.444Z,26.8
2018-07-04T03:29:54.117Z,26.76
2018-07-04T03:31:03.774Z,26.75
2018-07-04T03:32:13.542Z,26.73
2018-07-04T03:33:23.211Z,26.8
2018-07-04T03:34:32.371Z,26.73
2018-07-04T03:35:41.530Z,26.76
2018-07-04T03:36:51.195Z,26.8
2018-07-04T03:38:01.107Z,26.73
2018-07-04T03:39:10.779Z,26.73
2018-07-04T03:40:20.512Z,26.77
2018-07-04T03:41:30.436Z,26.87
2018-07-04T03:42:39.584Z,26.76
2018-07-04T03:43:48.994Z,26.73
2018-07-04T03:44:58.394Z,26.73
2018-07-04T03:46:07.791Z,26.8
2018-07-04T03:47:17.702Z,26.77
2018-07-04T03:48:27.361Z,26.77
2018-07-04T03:49:36.512Z,26.76
2018-07-04T03:50:45.397Z,26.8
2018-07-04T03:51:55.059Z,26.77
2018-07-04T03:53:04.344Z,26.76
2018-07-04T03:54:13.503Z,26.7
2018-07-04T03:55:22.669Z,26.75
2018-07-04T03:56:32.070Z,26.81
2018-07-04T03:57:41.477Z,26.81
2018-07-04T03:58:51.393Z,26.82
2018-07-04T04:00:00.539Z,26.76
2018-07-04T04:01:10.481Z,26.81
2018-07-04T04:02:19.386Z,26.8
2018-07-04T04:03:28.798Z,26.77
2018-07-04T04:04:37.948Z,26.8
2018-07-04T04:05:47.352Z,26.75
2018-07-04T04:06:56.757Z,26.72
2018-07-04T04:08:06.153Z,26.8
2018-07-04T04:09:15.564Z,26.77
2018-07-04T04:10:25.505Z,26.7
2018-07-04T04:11:35.420Z,26.84
2018-07-04T04:12:45.080Z,26.76
2018-07-04T04:13:54.224Z,26.76
2018-07-04T04:15:03.886Z,26.77
2018-07-04T04:16:13.298Z,26.72
2018-07-04T04:17:22.221Z,26.75
2018-07-04T04:18:31.884Z,26.82
2018-07-04T04:19:41.278Z,26.77
2018-07-04T04:20:50.479Z,26.8
2018-07-04T04:21:59.890Z,26.73
2018-07-04T04:23:09.300Z,26.8
2018-07-04T04:24:19.218Z,26.77
2018-07-04T04:25:28.636Z,26.69
2018-07-04T04:26:38.305Z,26.66
2018-07-04T04:27:47.984Z,26.75
2018-07-04T04:28:57.664Z,26.67
2018-07-04T04:30:06.813Z,26.76
2018-07-04T04:31:16.479Z,26.73
2018-07-04T04:32:25.637Z,26.63
2018-07-04T04:33:35.130Z,26.7
2018-07-04T04:34:43.764Z,26.72
2018-07-04T04:35:53.421Z,26.63
2018-07-04T04:37:03.354Z,26.67
2018-07-04T04:38:13.028Z,26.66
2018-07-04T04:39:22.694Z,26.7
2018-07-04T04:40:31.848Z,26.66
2018-07-04T04:41:41.247Z,26.76
2018-07-04T04:42:50.640Z,26.62
2018-07-04T04:43:59.803Z,26.6
2018-07-04T04:45:08.945Z,26.66
2018-07-04T04:46:18.094Z,26.62
2018-07-04T04:47:27.751Z,26.72
2018-07-04T04:48:37.405Z,26.65
2018-07-04T04:49:47.311Z,26.63
2018-07-04T04:50:56.722Z,26.65
2018-07-04T04:52:05.606Z,26.63
2018-07-04T04:53:15.019Z,26.65
2018-07-04T04:54:24.171Z,26.67
2018-07-04T04:55:33.077Z,26.67
2018-07-04T04:56:42.751Z,26.58
2018-07-04T04:57:51.950Z,26.65
2018-07-04T04:59:00.845Z,26.67
2018-07-04T05:00:10.266Z,26.67
2018-07-04T05:01:19.675Z,26.72
2018-07-04T05:02:28.821Z,26.62
2018-07-04T05:03:38.225Z,26.67
2018-07-04T05:04:47.624Z,26.63
2018-07-04T05:05:57.282Z,26.66
2018-07-04T05:07:06.439Z,26.73
2018-07-04T05:08:16.099Z,26.65
2018-07-04T05:09:24.727Z,26.69
2018-07-04T05:10:34.391Z,26.75
2018-07-04T05:11:43.793Z,26.69
2018-07-04T05:12:53.227Z,26.8
2018-07-04T05:14:02.383Z,26.72
2018-07-04T05:15:11.803Z,26.77
2018-07-04T05:16:21.723Z,26.81
2018-07-04T05:17:30.633Z,26.75
2018-07-04T05:18:40.035Z,26.8
2018-07-04T05:19:49.180Z,26.76
2018-07-04T05:20:58.715Z,26.82
2018-07-04T05:22:08.657Z,26.73
2018-07-04T05:23:18.061Z,26.8
2018-07-04T05:24:27.466Z,26.75
2018-07-04T05:25:37.168Z,26.73
2018-07-04T05:26:46.821Z,26.84
2018-07-04T05:27:55.982Z,26.87
2018-07-04T05:29:04.882Z,26.84
2018-07-04T05:30:14.288Z,26.82
2018-07-04T05:31:23.220Z,26.88
2018-07-04T05:32:32.376Z,26.87
2018-07-04T05:33:42.293Z,26.89
2018-07-04T05:34:51.954Z,26.89
2018-07-04T05:36:01.611Z,26.87
2018-07-04T05:37:11.009Z,26.84
2018-07-04T05:38:19.902Z,26.81
2018-07-04T05:39:29.081Z,26.84
2018-07-04T05:40:38.526Z,26.91
2018-07-04T05:41:48.300Z,26.87
2018-07-04T05:42:57.493Z,26.88
2018-07-04T05:44:06.636Z,26.84
2018-07-04T05:45:16.061Z,26.89
2018-07-04T05:46:25.704Z,26.92
2018-07-04T05:47:35.514Z,26.81
2018-07-04T05:48:44.981Z,26.94
2018-07-04T05:49:53.872Z,26.89
2018-07-04T05:51:03.027Z,26.94
2018-07-04T05:52:12.444Z,26.94
2018-07-04T05:53:22.137Z,26.89
2018-07-04T05:54:31.278Z,26.94
2018-07-04T05:55:40.971Z,26.97
2018-07-04T05:56:50.888Z,26.97
2018-07-04T05:58:00.035Z,26.97
2018-07-04T05:59:09.179Z,26.91
2018-07-04T06:00:18.342Z,26.95
2018-07-04T06:01:27.994Z,26.94
2018-07-04T06:02:37.700Z,26.94
2018-07-04T06:03:46.923Z,26.97
2018-07-04T06:04:56.839Z,27.02
2018-07-04T06:06:06.514Z,26.97
2018-07-04T06:07:16.192Z,26.99
2018-07-04T06:08:25.371Z,27.02
2018-07-04T06:09:34.533Z,26.99
2018-07-04T06:10:43.954Z,27.02
2018-07-04T06:11:53.096Z,26.99
2018-07-04T06:13:02.761Z,27.02
2018-07-04T06:14:12.428Z,26.94
2018-07-04T06:15:22.086Z,27
2018-07-04T06:16:30.983Z,27.04
2018-07-04T06:17:40.179Z,26.94
2018-07-04T06:18:50.331Z,26.99
2018-07-04T06:19:59.769Z,27.03
2018-07-04T06:21:09.432Z,27.02
2018-07-04T06:22:18.574Z,26.94
2018-07-04T06:23:27.723Z,27.02
2018-07-04T06:24:37.248Z,27
2018-07-04T06:25:46.702Z,26.94
2018-07-04T06:26:56.621Z,27.02
2018-07-04T06:28:05.762Z,27
2018-07-04T06:29:15.172Z,26.95
2018-07-04T06:30:25.094Z,27
2018-07-04T06:31:34.238Z,27
2018-07-04T06:32:43.423Z,27
2018-07-04T06:33:53.326Z,27
2018-07-04T06:35:03.002Z,26.99
2018-07-04T06:36:12.498Z,27
2018-07-04T06:37:21.914Z,27.06
2018-07-04T06:38:31.109Z,27
2018-07-04T06:39:40.258Z,27.06
2018-07-04T06:40:49.926Z,26.99
2018-07-04T06:41:59.326Z,27
2018-07-04T06:43:08.754Z,27.06
2018-07-04T06:44:17.661Z,26.99
2018-07-04T06:45:26.573Z,27.09
2018-07-04T06:46:36.499Z,27.04
2018-07-04T06:47:46.427Z,27.03
2018-07-04T06:48:56.018Z,27
2018-07-04T06:50:05.525Z,27.07
2018-07-04T06:51:14.669Z,27.13
2018-07-04T06:52:24.101Z,26.97
2018-07-04T06:53:33.772Z,26.97
2018-07-04T06:54:43.707Z,27
2018-07-04T06:55:53.124Z,27
2018-07-04T06:57:02.085Z,27
2018-07-04T06:58:11.259Z,27.06
2018-07-04T06:59:20.430Z,27.03
2018-07-04T07:00:29.837Z,27.06
2018-07-04T07:01:39.538Z,27
2018-07-04T07:02:49.207Z,27.02
2018-07-04T07:03:58.370Z,27.1
2018-07-04T07:05:07.531Z,27.02
2018-07-04T07:06:17.207Z,27.02
2018-07-04T07:07:26.877Z,27.12
2018-07-04T07:08:36.090Z,27.03
2018-07-04T07:09:45.656Z,27
2018-07-04T07:10:54.808Z,27
2018-07-04T07:12:04.230Z,27.04
2018-07-04T07:13:13.660Z,27.06
2018-07-04T07:14:23.680Z,27.12
2018-07-04T07:15:33.541Z,27.03
2018-07-04T07:16:43.493Z,27.07
2018-07-04T07:17:52.906Z,27.06
2018-07-04T07:19:02.315Z,27.1
2018-07-04T07:20:12.017Z,27.02
2018-07-04T07:21:21.853Z,27.02
2018-07-04T07:22:31.282Z,26.99
2018-07-04T07:23:40.691Z,27.12
2018-07-04T07:24:49.850Z,27.02
2018-07-04T07:25:59.258Z,27.02
2018-07-04T07:27:08.677Z,27.07
2018-07-04T07:28:19.015Z,27.03
2018-07-04T07:29:28.437Z,27.02
2018-07-04T07:30:37.335Z,27.07
2018-07-04T07:31:46.757Z,27.04
2018-07-04T07:32:56.158Z,27.12
2018-07-04T07:34:06.118Z,27.14
2018-07-04T07:35:15.898Z,27.09
2018-07-04T07:36:25.407Z,27.09
2018-07-04T07:37:34.817Z,27.07
2018-07-04T07:38:44.227Z,27.12
2018-07-04T07:39:53.627Z,27.1
2018-07-04T07:41:02.781Z,27.04
2018-07-04T07:42:11.693Z,27.12
2018-07-04T07:43:21.376Z,27.09
2018-07-04T07:44:30.277Z,27.13
2018-07-04T07:45:39.684Z,27.06
2018-07-04T07:46:49.364Z,27.07
2018-07-04T07:47:58.510Z,27.1
2018-07-04T07:49:07.914Z,27.06
2018-07-04T07:50:17.328Z,27.07
2018-07-04T07:51:26.228Z,27.12
2018-07-04T07:52:36.145Z,27.09
2018-07-04T07:53:45.293Z,27.04
2018-07-04T07:54:54.721Z,27.1
2018-07-04T07:56:03.877Z,27.14
2018-07-04T07:57:12.780Z,27.12
2018-07-04T07:58:21.698Z,27.12
2018-07-04T07:59:31.373Z,27.07
2018-07-04T08:00:41.298Z,27.06
2018-07-04T08:01:50.764Z,27.04
2018-07-04T08:03:00.535Z,27.07
2018-07-04T08:04:09.950Z,27.13
2018-07-04T08:05:19.371Z,27.06
2018-07-04T08:06:28.779Z,27.13
2018-07-04T08:07:38.197Z,27.12
2018-07-04T08:08:47.864Z,27.09
2018-07-04T08:09:57.798Z,27.12
2018-07-04T08:11:06.952Z,27.12
2018-07-04T08:12:16.648Z,27.1
2018-07-04T08:13:25.807Z,27.06
2018-07-04T08:14:34.970Z,27.13
2018-07-04T08:15:44.644Z,27.17
2018-07-04T08:16:54.057Z,27.21
2018-07-04T08:18:03.736Z,27.13
2018-07-04T08:19:13.150Z,27.09
2018-07-04T08:20:22.828Z,27.06
2018-07-04T08:21:32.246Z,27.12
2018-07-04T08:22:41.397Z,27.09
2018-07-04T08:23:51.092Z,27.17
2018-07-04T08:25:00.542Z,27.13
2018-07-04T08:26:10.213Z,27.09
2018-07-04T08:27:19.108Z,27.09
2018-07-04T08:28:28.264Z,27.14
2018-07-04T08:29:37.406Z,27.06
2018-07-04T08:30:46.375Z,27.17
2018-07-04T08:31:56.113Z,27.13
2018-07-04T08:33:05.667Z,27.17
2018-07-04T08:34:14.840Z,27.13
2018-07-04T08:35:23.999Z,27.14
2018-07-04T08:36:33.416Z,27.13
2018-07-04T08:37:43.342Z,27.13
2018-07-04T08:38:53.131Z,27.09
2018-07-04T08:40:02.414Z,27.13
2018-07-04T08:41:11.836Z,27.13
2018-07-04T08:42:21.236Z,27.19
2018-07-04T08:43:30.405Z,27.09
2018-07-04T08:44:40.199Z,27.13
2018-07-04T08:45:49.928Z,27.14
2018-07-04T08:46:59.096Z,27.14
2018-07-04T08:48:09.039Z,27.12
2018-07-04T08:49:18.205Z,27.18
2018-07-04T08:50:27.114Z,27.17
2018-07-04T08:51:37.071Z,27.14
2018-07-04T08:52:46.921Z,27.13
2018-07-04T08:53:56.115Z,27.21
2018-07-04T08:55:05.540Z,27.13
2018-07-04T08:56:14.953Z,27.17
2018-07-04T08:57:24.619Z,27.14
2018-07-04T08:58:34.081Z,27.12
2018-07-04T08:59:43.746Z,27.13
2018-07-04T09:00:53.455Z,27.12
2018-07-04T09:02:03.558Z,27.14
2018-07-04T09:03:12.995Z,27.17
2018-07-04T09:04:22.161Z,27.13
2018-07-04T09:05:31.661Z,27.12
2018-07-04T09:06:41.468Z,27.14
2018-07-04T09:07:50.629Z,27.12
2018-07-04T09:09:00.064Z,27.13
2018-07-04T09:10:09.737Z,27.14
2018-07-04T09:11:19.159Z,27.18
2018-07-04T09:12:28.316Z,27.14
2018-07-04T09:13:37.718Z,27.13
2018-07-04T09:14:46.875Z,27.18
2018-07-04T09:15:56.284Z,27.1
2018-07-04T09:17:05.735Z,27.17
2018-07-04T09:18:15.148Z,27.18
2018-07-04T09:19:24.323Z,27.13
2018-07-04T09:20:33.752Z,27.18
2018-07-04T09:21:43.416Z,27.17
2018-07-04T09:22:53.272Z,27.12
2018-07-04T09:24:02.926Z,27.21
2018-07-04T09:25:11.826Z,27.14
2018-07-04T09:26:21.777Z,27.13
2018-07-04T09:27:31.223Z,27.17
2018-07-04T09:28:40.142Z,27.17
2018-07-04T09:29:49.570Z,27.14
2018-07-04T09:30:58.483Z,27.18
2018-07-04T09:32:07.650Z,27.22
2018-07-04T09:33:17.572Z,27.22
2018-07-04T09:34:27.003Z,27.17
2018-07-04T09:35:36.153Z,27.18
2018-07-04T09:36:45.567Z,27.14
2018-07-04T09:37:54.454Z,27.17
2018-07-04T09:39:03.678Z,27.18
2018-07-04T09:40:13.352Z,27.22
2018-07-04T09:41:23.249Z,27.19
2018-07-04T09:42:33.181Z,27.22
2018-07-04T09:43:43.103Z,27.18
2018-07-04T09:44:52.724Z,27.14
2018-07-04T09:46:02.144Z,27.17
2018-07-04T09:47:11.850Z,27.22
2018-07-04T09:48:21.291Z,27.17
2018-07-04T09:49:30.441Z,27.13
2018-07-04T09:50:39.702Z,27.22
2018-07-04T09:51:48.910Z,27.14
2018-07-04T09:52:58.059Z,27.18
2018-07-04T09:54:06.959Z,27.24
2018-07-04T09:55:16.645Z,27.21
2018-07-04T09:56:26.070Z,27.21
2018-07-04T09:57:35.276Z,27.24
2018-07-04T09:58:45.244Z,27.22
2018-07-04T09:59:54.550Z,27.21
2018-07-04T10:01:03.703Z,27.19
2018-07-04T10:02:13.393Z,27.28
2018-07-04T10:03:23.064Z,27.21
2018-07-04T10:04:32.740Z,27.19
2018-07-04T10:05:42.814Z,27.18
2018-07-04T10:06:53.098Z,27.18
2018-07-04T10:08:02.503Z,27.18
2018-07-04T10:09:12.464Z,27.18
2018-07-04T10:10:22.125Z,27.17
2018-07-04T10:11:31.612Z,27.21
2018-07-04T10:12:41.175Z,27.18
2018-07-04T10:13:50.641Z,27.19
2018-07-04T10:15:00.190Z,27.24
2018-07-04T10:16:09.635Z,27.22
2018-07-04T10:17:19.310Z,27.19
2018-07-04T10:18:28.456Z,27.14
2018-07-04T10:19:37.630Z,27.17
2018-07-04T10:20:47.329Z,27.21
2018-07-04T10:21:56.754Z,27.22
2018-07-04T10:23:05.916Z,27.22
2018-07-04T10:24:15.452Z,27.18
2018-07-04T10:25:24.599Z,27.24
2018-07-04T10:26:34.269Z,27.22
2018-07-04T10:27:43.945Z,27.24
2018-07-04T10:28:53.362Z,27.18
2018-07-04T10:30:02.529Z,27.19
2018-07-04T10:31:11.942Z,27.28
2018-07-04T10:32:21.893Z,27.24
2018-07-04T10:33:31.567Z,27.22
2018-07-04T10:34:40.535Z,27.25
2018-07-04T10:35:49.442Z,27.25
2018-07-04T10:36:58.610Z,27.25
2018-07-04T10:38:07.758Z,27.18
2018-07-04T10:39:16.648Z,27.18
2018-07-04T10:40:26.322Z,27.18
2018-07-04T10:41:35.747Z,27.22
2018-07-04T10:42:45.476Z,27.19
2018-07-04T10:43:55.158Z,27.19
2018-07-04T10:45:04.835Z,27.21
2018-07-04T10:46:13.727Z,27.18
2018-07-04T10:47:23.389Z,27.18
2018-07-04T10:48:32.540Z,27.18
2018-07-04T10:49:42.210Z,27.18
2018-07-04T10:50:51.379Z,27.21
2018-07-04T10:52:00.878Z,27.22
2018-07-04T10:53:10.557Z,27.19
2018-07-04T10:54:19.965Z,27.19
2018-07-04T10:55:29.443Z,27.25
2018-07-04T10:56:39.128Z,27.27
2018-07-04T10:57:48.802Z,27.24
2018-07-04T10:58:57.977Z,27.19
2018-07-04T11:00:07.656Z,27.25
2018-07-04T11:01:17.083Z,27.17
2018-07-04T11:02:26.239Z,27.25
2018-07-04T11:03:35.389Z,27.21
2018-07-04T11:04:45.279Z,27.21
2018-07-04T11:05:54.542Z,27.18
2018-07-04T11:07:03.705Z,27.18
2018-07-04T11:08:13.128Z,27.24
2018-07-04T11:09:22.348Z,27.21
2018-07-04T11:10:32.061Z,27.21
2018-07-04T11:11:41.228Z,27.18
2018-07-04T11:12:50.910Z,27.25
2018-07-04T11:14:00.063Z,27.24
2018-07-04T11:15:09.214Z,27.25
2018-07-04T11:16:18.633Z,27.25
2018-07-04T11:17:27.810Z,27.27
2018-07-04T11:18:37.487Z,27.19
2018-07-04T11:19:46.636Z,27.19
2018-07-04T11:20:55.809Z,27.27
2018-07-04T11:22:05.512Z,27.22
2018-07-04T11:23:14.926Z,27.28
2018-07-04T11:24:24.357Z,27.18
2018-07-04T11:25:33.571Z,27.28
2018-07-04T11:26:43.521Z,27.22
2018-07-04T11:27:53.191Z,27.22
2018-07-04T11:29:02.345Z,27.18
2018-07-04T11:30:12.064Z,27.25
2018-07-04T11:31:21.732Z,27.22
2018-07-04T11:32:30.653Z,27.28
2018-07-04T11:33:40.306Z,27.25
2018-07-04T11:34:49.481Z,27.27
2018-07-04T11:35:58.929Z,27.25
2018-07-04T11:37:07.828Z,27.25
2018-07-04T11:38:17.529Z,27.22
2018-07-04T11:39:27.415Z,27.25
2018-07-04T11:40:36.563Z,27.25
2018-07-04T11:41:45.480Z,27.22
2018-07-04T11:42:54.889Z,27.25
2018-07-04T11:44:04.564Z,27.28
2018-07-04T11:45:13.967Z,27.22
2018-07-04T11:46:23.673Z,27.19
2018-07-04T11:47:33.521Z,27.25
2018-07-04T11:48:42.938Z,27.28
2018-07-04T11:49:52.115Z,27.31
2018-07-04T11:51:01.033Z,27.31
2018-07-04T11:52:10.702Z,27.27
2018-07-04T11:53:20.343Z,27.29
2018-07-04T11:54:29.492Z,27.28
2018-07-04T11:55:38.918Z,27.21
2018-07-04T11:56:47.812Z,27.24
2018-07-04T11:57:56.986Z,27.28
2018-07-04T11:59:06.152Z,27.27
2018-07-04T12:00:15.584Z,27.24
2018-07-04T12:01:25.248Z,27.24
2018-07-04T12:02:34.677Z,27.29
2018-07-04T12:03:43.836Z,27.31
2018-07-04T12:04:53.249Z,27.24
2018-07-04T12:06:02.408Z,27.27
2018-07-04T12:07:11.558Z,27.28
2018-07-04T12:08:20.729Z,27.29
2018-07-04T12:09:30.154Z,27.25
2018-07-04T12:10:40.112Z,27.22
2018-07-04T12:11:49.523Z,27.28
2018-07-04T12:12:58.949Z,27.27
2018-07-04T12:14:08.365Z,27.32
2018-07-04T12:15:18.032Z,27.18
2018-07-04T12:16:27.440Z,27.22
2018-07-04T12:17:36.851Z,27.25
2018-07-04T12:18:46.287Z,27.19
2018-07-04T12:19:55.488Z,27.31
2018-07-04T12:21:05.374Z,27.25
2018-07-04T12:22:15.199Z,27.31
2018-07-04T12:23:24.640Z,27.29
2018-07-04T12:24:34.076Z,27.24
2018-07-04T12:25:43.268Z,27.29
2018-07-04T12:26:53.095Z,27.29
2018-07-04T12:28:03.233Z,27.28
2018-07-04T12:29:12.408Z,27.27
2018-07-04T12:30:21.820Z,27.31
2018-07-04T12:31:31.011Z,27.28
2018-07-04T12:32:40.525Z,27.29
2018-07-04T12:33:49.460Z,27.25
2018-07-04T12:34:58.397Z,27.24
2018-07-04T12:36:08.059Z,27.24
2018-07-04T12:37:17.500Z,27.25
2018-07-04T12:38:27.251Z,27.31
2018-07-04T12:39:37.148Z,27.22
2018-07-04T12:40:46.618Z,27.29
2018-07-04T12:41:56.287Z,27.28
2018-07-04T12:43:05.271Z,27.28
2018-07-04T12:44:14.174Z,27.19
2018-07-04T12:45:23.586Z,27.21
2018-07-04T12:46:32.750Z,27.27
2018-07-04T12:47:41.914Z,27.29
2018-07-04T12:48:51.622Z,27.19
2018-07-04T12:50:01.575Z,27.21
2018-07-04T12:51:11.470Z,27.28
2018-07-04T12:52:21.244Z,27.22
2018-07-04T12:53:30.164Z,27.29
2018-07-04T12:54:39.817Z,27.29
2018-07-04T12:55:49.925Z,27.21
2018-07-04T12:56:59.625Z,27.22
2018-07-04T12:58:09.323Z,27.29
2018-07-04T12:59:19.048Z,27.25
2018-07-04T13:00:28.878Z,27.28
2018-07-04T13:01:38.546Z,27.29
2018-07-04T13:02:48.135Z,27.29
2018-07-04T13:03:57.561Z,27.28
2018-07-04T13:05:06.721Z,27.19
2018-07-04T13:06:15.622Z,27.25
2018-07-04T13:07:25.557Z,27.21
2018-07-04T13:08:35.034Z,27.25
2018-07-04T13:09:44.961Z,27.22
2018-07-04T13:10:54.119Z,27.21
2018-07-04T13:12:03.837Z,27.22
2018-07-04T13:13:13.513Z,27.19
2018-07-04T13:14:23.447Z,27.14
2018-07-04T13:15:32.624Z,27.22
2018-07-04T13:16:42.375Z,27.31
2018-07-04T13:17:51.813Z,27.22
2018-07-04T13:19:01.249Z,27.29
2018-07-04T13:20:11.172Z,27.22
2018-07-04T13:21:20.633Z,27.24
2018-07-04T13:22:30.057Z,27.29
2018-07-04T13:23:40.098Z,27.19
2018-07-04T13:24:49.778Z,27.24
2018-07-04T13:25:59.941Z,27.25
2018-07-04T13:27:09.358Z,27.19
2018-07-04T13:28:18.507Z,27.29
2018-07-04T13:29:27.747Z,27.25
2018-07-04T13:30:37.178Z,27.21
2018-07-04T13:31:46.627Z,27.24
2018-07-04T13:32:56.345Z,27.31
2018-07-04T13:34:05.513Z,27.25
2018-07-04T13:35:15.127Z,27.21
2018-07-04T13:36:25.033Z,27.28
2018-07-04T13:37:34.471Z,27.27
2018-07-04T13:38:43.928Z,27.32
2018-07-04T13:39:53.091Z,27.18
2018-07-04T13:41:02.771Z,27.31
2018-07-04T13:42:11.947Z,27.24
2018-07-04T13:43:21.632Z,27.31
2018-07-04T13:44:31.471Z,27.29
2018-07-04T13:45:41.201Z,27.28
2018-07-04T13:46:50.603Z,27.24
2018-07-04T13:48:00.034Z,27.29
2018-07-04T13:49:09.982Z,27.25
2018-07-04T13:50:20.085Z,27.27
2018-07-04T13:51:29.013Z,27.24
2018-07-04T13:52:38.429Z,27.28
2018-07-04T13:53:47.935Z,27.21
2018-07-04T13:54:57.621Z,27.28
2018-07-04T13:56:07.582Z,27.31
2018-07-04T13:57:17.273Z,27.24
2018-07-04T13:58:26.445Z,27.21
2018-07-04T13:59:36.126Z,27.28
2018-07-04T14:00:45.803Z,27.31
2018-07-04T14:01:55.216Z,27.28
2018-07-04T14:03:04.420Z,27.24
2018-07-04T14:04:14.671Z,27.32
2018-07-04T14:05:24.162Z,27.22
2018-07-04T14:06:34.113Z,27.24
2018-07-04T14:07:43.526Z,27.29
2018-07-04T14:08:53.443Z,27.28
2018-07-04T14:10:03.125Z,27.22
2018-07-04T14:11:12.937Z,27.31
2018-07-04T14:12:21.906Z,27.28
2018-07-04T14:13:31.097Z,27.24
2018-07-04T14:14:40.270Z,27.28
2018-07-04T14:15:49.422Z,27.29
2018-07-04T14:16:58.586Z,27.28
2018-07-04T14:18:07.995Z,27.32
2018-07-04T14:19:17.664Z,27.29
2018-07-04T14:20:27.086Z,27.31
2018-07-04T14:21:35.990Z,27.21
2018-07-04T14:22:45.415Z,27.28
2018-07-04T14:23:54.563Z,27.28
2018-07-04T14:25:03.985Z,27.22
2018-07-04T14:26:13.186Z,27.31
2018-07-04T14:27:22.606Z,27.24
2018-07-04T14:28:32.025Z,27.24
2018-07-04T14:29:41.956Z,27.32
2018-07-04T14:30:51.886Z,27.25
2018-07-04T14:32:01.536Z,27.29
2018-07-04T14:33:10.942Z,27.28
2018-07-04T14:34:20.878Z,27.31
2018-07-04T14:35:29.779Z,27.36
2018-07-04T14:36:39.455Z,27.24
2018-07-04T14:37:49.133Z,27.31
2018-07-04T14:38:58.685Z,27.25
2018-07-04T14:40:08.178Z,27.31
2018-07-04T14:41:17.862Z,27.31
2018-07-04T14:42:26.529Z,27.29
2018-07-04T14:43:35.999Z,27.27
2018-07-04T14:44:45.692Z,27.29
2018-07-04T14:45:55.383Z,27.29
2018-07-04T14:47:04.543Z,27.24
2018-07-04T14:48:13.973Z,27.19
2018-07-04T14:49:23.126Z,27.34
2018-07-04T14:50:32.810Z,27.22
2018-07-04T14:51:42.243Z,27.4
2018-07-04T14:52:51.655Z,27.25
2018-07-04T14:54:01.592Z,27.36
2018-07-04T14:55:11.303Z,27.29
2018-07-04T14:56:20.974Z,27.25
2018-07-04T14:57:30.392Z,27.25